Time;durP1;ratioP1;P1;durP2;ratioP2;P2;SDS_P1;SDS_P2;PMS_P1;PMS_P2;Temp;Humidity;BMP_temperature;BMP_pressure;BME280_temperature;BME280_humidity;BME280_pressure;Samples;Min_cycle;Max_cycle;Signal;HPM_P1;HPM_P2
2023/11/10 00:01:56;;;;;;;9.73;3.33;;;;;6.90;96080.00;;;;5108983;28;20225;-84
2023/11/10 00:04:48;;;;;;;6.40;2.37;;;;;6.90;96078.00;;;;5102080;28;20201;-83
2023/11/10 00:07:38;;;;;;;6.63;2.30;;;;;7.00;96077.00;;;;5099494;28;20583;-86
2023/11/10 00:10:27;;;;;;;7.17;2.50;;;;;7.40;96064.00;;;;5107361;28;20276;-85
2023/11/10 00:13:16;;;;;;;6.73;2.40;;;;;7.50;96060.00;;;;5102653;28;20211;-82
2023/11/10 00:16:08;;;;;;;11.70;4.17;;;;;7.30;96075.00;;;;5108508;28;20210;-83
2023/11/10 00:18:58;;;;;;;8.93;3.13;;;;;6.80;96080.00;;;;5101154;28;20214;-83
2023/11/10 00:21:49;;;;;;;5.97;2.20;;;;;6.60;96083.00;;;;5102425;28;20711;-84
2023/11/10 00:24:39;;;;;;;6.97;2.50;;;;;6.40;96100.00;;;;5108918;28;20207;-84
2023/11/10 00:27:28;;;;;;;11.70;4.03;;;;;7.00;96086.00;;;;5107707;27;20224;-84
2023/11/10 00:30:19;;;;;;;7.93;2.77;;;;;7.30;96089.00;;;;5105496;28;20697;-84
2023/11/10 00:33:09;;;;;;;6.20;2.17;;;;;7.30;96084.00;;;;5101976;27;20726;-83
2023/11/10 00:35:58;;;;;;;12.13;4.17;;;;;7.20;96080.00;;;;5101631;28;20202;-83
2023/11/10 00:38:47;;;;;;;5.73;2.10;;;;;6.80;96086.00;;;;5109524;28;20206;-85
2023/11/10 00:41:36;;;;;;;5.07;1.70;;;;;6.90;96089.00;;;;5101804;28;20223;-83
2023/11/10 00:44:27;;;;;;;7.17;2.43;;;;;7.10;96095.00;;;;5104672;28;20202;-84
2023/11/10 00:47:16;;;;;;;9.53;3.23;;;;;7.20;96084.00;;;;5104384;28;20221;-83
2023/11/10 00:50:07;;;;;;;10.03;3.73;;;;;7.00;96098.00;;;;5105570;28;20191;-85
2023/11/10 00:52:57;;;;;;;9.27;3.37;;;;;7.10;96096.00;;;;5110300;28;20206;-85
2023/11/10 00:55:45;;;;;;;6.90;2.47;;;;;6.90;96087.00;;;;5105830;28;20721;-85
2023/11/10 00:58:35;;;;;;;5.60;2.03;;;;;7.30;96090.00;;;;5105401;28;20215;-85
2023/11/10 01:01:23;;;;;;;8.07;2.87;;;;;7.20;96083.00;;;;5101025;28;20227;-86
2023/11/10 01:04:15;;;;;;;6.90;2.50;;;;;7.00;96085.00;;;;5100377;28;20215;-85
2023/11/10 01:07:06;;;;;;;7.40;2.50;;;;;6.80;96078.00;;;;5107760;28;20218;-85
2023/11/10 01:09:55;;;;;;;8.53;3.03;;;;;6.70;96080.00;;;;5106616;28;20202;-85
2023/11/10 01:12:44;;;;;;;6.30;2.30;;;;;6.40;96073.00;;;;5099995;28;20225;-85
2023/11/10 01:15:33;;;;;;;5.63;2.17;;;;;6.70;96071.00;;;;5106434;28;20207;-84
2023/11/10 01:18:23;;;;;;;7.00;2.47;;;;;7.00;96070.00;;;;5104749;28;20976;-84
2023/11/10 01:21:12;;;;;;;5.97;2.20;;;;;7.40;96069.00;;;;5104384;28;20222;-84
2023/11/10 01:24:04;;;;;;;10.40;3.67;;;;;7.60;96072.00;;;;5108500;28;20203;-85
2023/11/10 01:26:53;;;;;;;11.40;3.83;;;;;7.60;96069.00;;;;5104619;28;20238;-85
2023/11/10 01:29:42;;;;;;;7.07;2.47;;;;;7.10;96061.00;;;;5103729;28;20194;-85
2023/11/10 01:32:31;;;;;;;9.50;3.30;;;;;7.30;96064.00;;;;5104300;28;20688;-85
2023/11/10 01:35:20;;;;;;;7.43;2.77;;;;;7.30;96067.00;;;;5108858;28;20205;-85
2023/11/10 01:38:09;;;;;;;6.20;2.10;;;;;7.10;96054.00;;;;5096253;28;20206;-85
2023/11/10 01:40:59;;;;;;;9.97;3.43;;;;;7.10;96055.00;;;;5098180;27;20226;-84
2023/11/10 01:43:48;;;;;;;3.40;1.30;;;;;7.10;96052.00;;;;5112256;28;20206;-85
2023/11/10 01:46:45;;;;;;;5.77;2.07;;;;;7.10;96057.00;;;;5112143;28;20621;-85
2023/11/10 01:49:35;;;;;;;3.63;1.40;;;;;7.60;96062.00;;;;5109602;28;20289;-86
2023/11/10 01:52:24;;;;;;;10.00;3.40;;;;;7.60;96060.00;;;;5102193;28;20703;-85
2023/11/10 01:55:15;;;;;;;6.50;2.20;;;;;7.70;96061.00;;;;5110085;28;20222;-87
2023/11/10 01:58:06;;;;;;;7.93;2.77;;;;;7.70;96052.00;;;;5100031;27;20203;-85
2023/11/10 02:00:55;;;;;;;7.73;2.60;;;;;7.50;96047.00;;;;5102531;28;20226;-85
2023/11/10 02:03:44;;;;;;;6.80;2.37;;;;;7.60;96047.00;;;;5107728;28;20202;-86
2023/11/10 02:06:33;;;;;;;8.30;2.83;;;;;7.80;96045.00;;;;5107717;27;20223;-85
2023/11/10 02:09:22;;;;;;;10.77;3.70;;;;;7.80;96045.00;;;;5107486;27;20218;-86
2023/11/10 02:12:12;;;;;;;4.63;1.70;;;;;7.50;96052.00;;;;5102707;28;20237;-87
2023/11/10 02:15:03;;;;;;;9.27;3.20;;;;;7.30;96027.00;;;;5108926;27;20218;-85
2023/11/10 02:17:52;;;;;;;9.30;3.13;;;;;7.60;96027.00;;;;5106867;27;20202;-86
2023/11/10 02:20:42;;;;;;;7.27;2.40;;;;;7.60;96039.00;;;;5108059;28;20198;-86
2023/11/10 02:23:32;;;;;;;5.90;2.13;;;;;7.60;96025.00;;;;5105648;28;20207;-86
2023/11/10 02:26:23;;;;;;;8.73;2.93;;;;;7.60;96022.00;;;;5105171;28;20198;-86
2023/11/10 02:29:12;;;;;;;10.97;3.70;;;;;7.60;96015.00;;;;5097472;28;20203;-86
2023/11/10 02:32:01;;;;;;;9.67;3.40;;;;;7.70;96001.00;;;;5104190;28;20868;-85
2023/11/10 02:34:51;;;;;;;6.63;2.20;;;;;7.60;95997.00;;;;5104659;28;20198;-86
2023/11/10 02:37:40;;;;;;;5.47;2.00;;;;;7.10;95994.00;;;;5101808;28;20194;-85
2023/11/10 02:40:29;;;;;;;6.10;2.20;;;;;7.10;95997.00;;;;5105404;28;20578;-86
2023/11/10 02:43:19;;;;;;;6.40;2.43;;;;;7.10;95997.00;;;;5104070;28;20195;-86
2023/11/10 02:46:08;;;;;;;6.03;2.13;;;;;7.20;96003.00;;;;5105171;28;20238;-86
2023/11/10 02:48:58;;;;;;;9.57;3.30;;;;;7.20;96005.00;;;;5102668;28;20206;-86
2023/11/10 02:51:48;;;;;;;5.97;2.20;;;;;7.60;96007.00;;;;5100821;28;21011;-85
2023/11/10 02:54:37;;;;;;;6.97;2.47;;;;;7.20;96008.00;;;;5102979;28;20202;-87
2023/11/10 02:57:26;;;;;;;12.43;4.13;;;;;7.60;95995.00;;;;5105125;27;20194;-86
2023/11/10 03:00:17;;;;;;;7.30;2.50;;;;;7.60;95996.00;;;;5111184;28;20210;-86
2023/11/10 03:03:06;;;;;;;12.73;4.37;;;;;7.40;95996.00;;;;5109254;28;20292;-87
2023/11/10 03:05:56;;;;;;;11.90;4.10;;;;;7.40;96005.00;;;;5106336;28;20203;-84
2023/11/10 03:08:45;;;;;;;5.63;1.97;;;;;7.60;95998.00;;;;5105475;28;20223;-87
2023/11/10 03:11:34;;;;;;;7.40;2.50;;;;;7.60;95995.00;;;;5111369;28;20329;-86
2023/11/10 03:14:23;;;;;;;8.23;2.80;;;;;7.40;95989.00;;;;5110079;28;20209;-84
2023/11/10 03:17:13;;;;;;;7.50;2.60;;;;;7.30;95996.00;;;;5107111;28;20206;-85
2023/11/10 03:20:03;;;;;;;8.93;3.07;;;;;7.30;95991.00;;;;5107627;27;20198;-84
2023/11/10 03:22:52;;;;;;;6.83;2.37;;;;;7.70;95998.00;;;;5102717;28;20194;-85
2023/11/10 03:25:41;;;;;;;9.40;3.13;;;;;7.80;95995.00;;;;5101520;28;20214;-85
2023/11/10 03:28:30;;;;;;;7.00;2.47;;;;;7.80;95991.00;;;;5108863;28;20218;-83
2023/11/10 03:31:19;;;;;;;7.97;2.67;;;;;7.90;95990.00;;;;5102591;28;20223;-85
2023/11/10 03:34:10;;;;;;;11.43;3.97;;;;;7.80;95992.00;;;;5108600;28;20210;-84
2023/11/10 03:37:00;;;;;;;10.30;3.43;;;;;7.80;95980.00;;;;5105985;27;20721;-83
2023/11/10 03:39:49;;;;;;;5.70;2.00;;;;;7.60;95981.00;;;;5107656;28;20556;-84
2023/11/10 03:42:38;;;;;;;6.53;2.27;;;;;7.60;95971.00;;;;5105595;28;20230;-86
2023/11/10 03:45:27;;;;;;;6.87;2.40;;;;;7.60;95970.00;;;;5103196;28;20199;-85
2023/11/10 03:48:16;;;;;;;7.33;2.47;;;;;7.70;95967.00;;;;5101824;28;20250;-85
2023/11/10 03:51:11;;;;;;;10.67;3.60;;;;;7.60;95967.00;;;;5104603;28;20215;-85
2023/11/10 03:54:00;;;;;;;11.90;3.83;;;;;7.60;95960.00;;;;5106030;28;20683;-83
2023/11/10 03:56:49;;;;;;;7.20;2.40;;;;;7.50;95958.00;;;;5098540;28;20203;-83
2023/11/10 03:59:39;;;;;;;7.03;2.40;;;;;7.10;95958.00;;;;5105224;28;20214;-85
2023/11/10 04:02:28;;;;;;;8.80;2.93;;;;;7.20;95949.00;;;;5107942;28;20218;-86
2023/11/10 04:05:18;;;;;;;7.63;2.57;;;;;7.40;95950.00;;;;5103122;28;20237;-85
2023/11/10 04:08:08;;;;;;;12.40;4.13;;;;;7.60;95946.00;;;;5106211;28;20214;-84
2023/11/10 04:10:58;;;;;;;11.73;3.83;;;;;7.40;95943.00;;;;5104312;28;20222;-85
2023/11/10 04:13:47;;;;;;;5.17;1.90;;;;;7.60;95938.00;;;;5101749;28;20707;-84
2023/11/10 04:16:36;;;;;;;7.10;2.40;;;;;7.60;95933.00;;;;5110742;28;20210;-84
2023/11/10 04:19:25;;;;;;;5.87;2.00;;;;;7.60;95927.00;;;;5102996;28;20675;-86
2023/11/10 04:22:14;;;;;;;6.03;2.07;;;;;7.50;95921.00;;;;5100209;28;20231;-85
2023/11/10 04:25:05;;;;;;;12.27;4.10;;;;;7.60;95926.00;;;;5108276;27;20206;-85
2023/11/10 04:27:54;;;;;;;8.27;2.73;;;;;7.60;95917.00;;;;5099773;28;20682;-84
2023/11/10 04:30:44;;;;;;;5.67;2.00;;;;;7.80;95911.00;;;;5100142;28;20194;-86
2023/11/10 04:33:33;;;;;;;6.97;2.40;;;;;7.70;95909.00;;;;5108057;28;20210;-83
2023/11/10 04:36:22;;;;;;;7.70;2.63;;;;;7.70;95911.00;;;;5107743;28;20287;-85
2023/11/10 04:39:11;;;;;;;13.77;4.43;;;;;7.60;95908.00;;;;5100195;28;20203;-84
2023/11/10 04:42:01;;;;;;;12.10;3.97;;;;;7.50;95898.00;;;;5103581;28;20218;-84
2023/11/10 04:44:50;;;;;;;8.30;2.83;;;;;7.60;95903.00;;;;5099938;28;20204;-86
2023/11/10 04:47:40;;;;;;;6.37;2.20;;;;;7.60;95893.00;;;;5104080;28;20205;-84
2023/11/10 04:50:29;;;;;;;9.00;3.00;;;;;7.70;95888.00;;;;5110710;28;20671;-85
2023/11/10 04:53:18;;;;;;;8.37;2.83;;;;;7.80;95882.00;;;;5104949;28;20195;-84
2023/11/10 04:56:07;;;;;;;10.90;3.67;;;;;7.70;95883.00;;;;5109518;28;20195;-83
2023/11/10 04:58:57;;;;;;;12.33;4.07;;;;;7.60;95887.00;;;;5102040;28;20194;-83
2023/11/10 05:01:47;;;;;;;6.87;2.40;;;;;7.60;95887.00;;;;5100783;28;20245;-86
2023/11/10 05:04:39;;;;;;;7.83;2.70;;;;;7.50;95878.00;;;;5104531;28;20691;-83
2023/11/10 05:07:28;;;;;;;10.90;3.53;;;;;7.60;95885.00;;;;5105646;28;20202;-83
2023/11/10 05:10:17;;;;;;;6.53;2.13;;;;;7.60;95881.00;;;;5107840;28;20316;-84
2023/11/10 05:13:06;;;;;;;9.70;3.20;;;;;7.70;95882.00;;;;5108590;28;20202;-84
2023/11/10 05:15:56;;;;;;;11.33;3.73;;;;;7.70;95891.00;;;;5095432;28;20269;-83
2023/11/10 05:18:45;;;;;;;7.20;2.33;;;;;7.80;95882.00;;;;5102048;28;20213;-84
2023/11/10 05:21:37;;;;;;;6.87;2.40;;;;;7.70;95887.00;;;;5110055;28;20609;-84
2023/11/10 05:24:26;;;;;;;7.83;2.73;;;;;7.60;95890.00;;;;5101000;28;20199;-84
2023/11/10 05:27:16;;;;;;;6.23;2.20;;;;;7.60;95887.00;;;;5106904;28;20195;-86
2023/11/10 05:30:06;;;;;;;9.03;3.00;;;;;7.60;95885.00;;;;5108018;28;20578;-85
2023/11/10 05:32:57;;;;;;;10.40;3.40;;;;;7.70;95886.00;;;;5099235;28;20214;-84
2023/11/10 05:35:46;;;;;;;7.10;2.53;;;;;7.80;95883.00;;;;5100799;28;20198;-83
2023/11/10 05:38:35;;;;;;;5.20;1.87;;;;;7.70;95888.00;;;;5102633;28;20187;-84
2023/11/10 05:41:24;;;;;;;7.87;2.60;;;;;7.70;95877.00;;;;5103872;28;20277;-84
2023/11/10 05:44:13;;;;;;;7.33;2.40;;;;;7.80;95879.00;;;;5102681;28;20198;-84
2023/11/10 05:47:03;;;;;;;8.53;2.90;;;;;7.70;95878.00;;;;5097105;28;20206;-85
2023/11/10 05:49:53;;;;;;;4.77;1.73;;;;;7.80;95879.00;;;;5097898;28;20215;-84
2023/11/10 05:52:43;;;;;;;6.87;2.27;;;;;7.70;95881.00;;;;5098756;28;20254;-83
2023/11/10 05:55:32;;;;;;;10.23;3.30;;;;;7.50;95876.00;;;;5100244;28;20213;-85
2023/11/10 05:58:21;;;;;;;4.20;1.53;;;;;7.50;95889.00;;;;5101766;28;20213;-84
2023/11/10 06:01:11;;;;;;;5.00;1.73;;;;;7.70;95883.00;;;;5104750;27;21973;-83
2023/11/10 06:04:00;;;;;;;10.10;3.30;;;;;7.80;95878.00;;;;5098670;28;20198;-84
2023/11/10 06:06:51;;;;;;;14.50;4.57;;;;;7.80;95882.00;;;;5111856;28;20206;-80
2023/11/10 06:09:41;;;;;;;7.17;2.50;;;;;7.90;95879.00;;;;5115703;28;20223;-83
2023/11/10 06:12:30;;;;;;;10.33;3.40;;;;;8.00;95872.00;;;;5107882;28;20225;-83
2023/11/10 06:15:20;;;;;;;11.57;3.77;;;;;8.00;95872.00;;;;5104482;28;20203;-83
2023/11/10 06:18:10;;;;;;;11.17;3.83;;;;;7.80;95862.00;;;;5099793;28;20207;-84
2023/11/10 06:20:59;;;;;;;12.73;4.20;;;;;7.90;95870.00;;;;5109790;28;20222;-81
2023/11/10 06:23:50;;;;;;;7.07;2.40;;;;;7.80;95865.00;;;;5104592;28;20194;-82
2023/11/10 06:26:39;;;;;;;8.50;2.80;;;;;7.70;95869.00;;;;5096969;28;20586;-82
2023/11/10 06:29:28;;;;;;;16.87;5.47;;;;;7.80;95867.00;;;;5091714;28;20234;-82
2023/11/10 06:32:18;;;;;;;12.57;4.00;;;;;7.80;95866.00;;;;5098662;28;20233;-83
2023/11/10 06:35:08;;;;;;;15.27;5.13;;;;;7.50;95877.00;;;;5100016;28;20586;-83
2023/11/10 06:37:57;;;;;;;9.77;3.23;;;;;7.60;95869.00;;;;5103532;28;20198;-84
2023/11/10 06:40:48;;;;;;;4.07;1.60;;;;;7.60;95868.00;;;;5102460;28;20226;-84
2023/11/10 06:43:37;;;;;;;8.07;2.73;;;;;7.40;95873.00;;;;5100958;28;20230;-83
2023/11/10 06:46:27;;;;;;;9.17;3.03;;;;;7.60;95877.00;;;;5107095;28;20702;-82
2023/11/10 06:49:16;;;;;;;16.70;5.33;;;;;7.90;95865.00;;;;5105454;28;20277;-82
2023/11/10 06:52:06;;;;;;;14.50;4.77;;;;;8.10;95869.00;;;;5104748;28;20228;-82
2023/11/10 06:54:56;;;;;;;8.20;2.80;;;;;8.20;95873.00;;;;5115084;28;20205;-83
2023/11/10 06:57:47;;;;;;;7.23;2.43;;;;;8.10;95873.00;;;;5103799;28;20881;-84
2023/11/10 07:00:37;;;;;;;6.90;2.33;;;;;7.90;95871.00;;;;5099196;28;20213;-84
2023/11/10 07:03:26;;;;;;;7.77;2.60;;;;;8.10;95863.00;;;;5106415;28;20686;-84
2023/11/10 07:06:17;;;;;;;6.13;2.00;;;;;8.00;95865.00;;;;5104021;28;20206;-81
2023/11/10 07:09:07;;;;;;;14.37;4.83;;;;;8.00;95860.00;;;;5093925;28;20226;-84
2023/11/10 07:11:56;;;;;;;11.50;3.70;;;;;8.10;95848.00;;;;5101753;28;20215;-84
2023/11/10 07:14:47;;;;;;;8.27;2.67;;;;;8.10;95853.00;;;;5100020;28;20203;-82
2023/11/10 07:17:37;;;;;;;7.80;2.63;;;;;8.10;95852.00;;;;5100283;28;20614;-84
2023/11/10 07:20:26;;;;;;;7.87;2.70;;;;;8.20;95853.00;;;;5111920;28;20205;-81
2023/11/10 07:23:15;;;;;;;18.03;5.87;;;;;8.20;95865.00;;;;5094100;27;20230;-82
2023/11/10 07:26:04;;;;;;;16.13;5.20;;;;;8.20;95859.00;;;;5097600;28;20209;-82
2023/11/10 07:28:53;;;;;;;7.03;2.40;;;;;8.40;95859.00;;;;5100313;28;20312;-80
2023/11/10 07:31:44;;;;;;;7.77;2.60;;;;;8.60;95856.00;;;;5105236;28;20226;-83
2023/11/10 07:34:33;;;;;;;7.03;2.33;;;;;8.60;95861.00;;;;5112624;28;20199;-82
2023/11/10 07:37:22;;;;;;;18.83;5.90;;;;;8.70;95853.00;;;;5096090;28;20222;-80
2023/11/10 07:40:14;;;;;;;14.93;4.93;;;;;8.70;95847.00;;;;5099001;28;20195;-83
2023/11/10 07:43:04;;;;;;;13.77;4.43;;;;;8.70;95842.00;;;;5109195;28;20210;-83
2023/11/10 07:45:54;;;;;;;5.77;2.03;;;;;8.50;95841.00;;;;5106882;28;20190;-79
2023/11/10 07:48:44;;;;;;;6.73;2.27;;;;;8.50;95836.00;;;;5104783;28;20199;-84
2023/11/10 07:51:33;;;;;;;6.80;2.30;;;;;8.50;95837.00;;;;5114020;28;20225;-82
2023/11/10 07:54:23;;;;;;;7.50;2.43;;;;;8.60;95823.00;;;;5107187;28;20680;-82
2023/11/10 07:57:13;;;;;;;17.00;5.47;;;;;8.40;95828.00;;;;5110660;28;20209;-84
2023/11/10 08:00:02;;;;;;;15.67;5.07;;;;;8.60;95834.00;;;;5106010;28;20198;-81
2023/11/10 08:02:53;;;;;;;7.37;2.40;;;;;8.60;95832.00;;;;5097553;28;20207;-83
2023/11/10 08:05:43;;;;;;;8.57;2.80;;;;;8.60;95828.00;;;;5108943;28;20199;-83
2023/11/10 08:08:32;;;;;;;6.20;2.10;;;;;8.80;95822.00;;;;5111102;28;20214;-83
2023/11/10 08:11:21;;;;;;;7.93;2.70;;;;;8.90;95825.00;;;;5108140;27;20227;-83
2023/11/10 08:14:10;;;;;;;13.13;4.30;;;;;9.00;95820.00;;;;5109623;28;20206;-83
2023/11/10 08:17:00;;;;;;;14.43;4.53;;;;;8.80;95825.00;;;;5106098;28;20213;-82
2023/11/10 08:19:49;;;;;;;6.20;2.20;;;;;8.70;95825.00;;;;5102191;28;20285;-82
2023/11/10 08:22:40;;;;;;;7.53;2.50;;;;;8.80;95815.00;;;;5107393;27;20702;-83
2023/11/10 08:25:29;;;;;;;7.53;2.57;;;;;8.80;95814.00;;;;5112025;27;20199;-83
2023/11/10 08:28:19;;;;;;;8.80;2.80;;;;;8.90;95811.00;;;;5107653;27;20234;-83
2023/11/10 08:31:08;;;;;;;12.57;4.10;;;;;9.00;95818.00;;;;5107164;28;20227;-83
2023/11/10 08:33:57;;;;;;;11.90;3.80;;;;;9.10;95808.00;;;;5103617;28;20201;-84
2023/11/10 08:36:48;;;;;;;7.23;2.40;;;;;9.00;95809.00;;;;5102590;28;20210;-84
2023/11/10 08:39:39;;;;;;;8.97;2.97;;;;;9.00;95806.00;;;;5111611;28;20617;-84
2023/11/10 08:42:28;;;;;;;10.23;3.27;;;;;9.10;95811.00;;;;5108916;28;20237;-84
2023/11/10 08:45:17;;;;;;;8.20;2.80;;;;;9.20;95819.00;;;;5105548;28;20195;-83
2023/11/10 08:48:06;;;;;;;11.27;3.67;;;;;9.40;95809.00;;;;5103512;27;20470;-84
2023/11/10 08:50:56;;;;;;;7.70;2.53;;;;;9.50;95803.00;;;;5104034;28;20233;-81
2023/11/10 08:53:45;;;;;;;7.00;2.30;;;;;9.60;95792.00;;;;5096243;28;20217;-82
2023/11/10 08:56:36;;;;;;;9.80;3.17;;;;;9.80;95784.00;;;;5103803;28;20199;-82
2023/11/10 08:59:25;;;;;;;7.47;2.57;;;;;9.70;95777.00;;;;5106437;28;20223;-82
2023/11/10 09:02:14;;;;;;;8.90;2.97;;;;;9.60;95790.00;;;;5102993;28;20229;-81
2023/11/10 09:05:04;;;;;;;8.20;2.90;;;;;9.60;95781.00;;;;5103049;28;20210;-82
2023/11/10 09:07:54;;;;;;;7.20;2.50;;;;;9.50;95775.00;;;;5103833;28;20210;-84
2023/11/10 09:10:43;;;;;;;8.93;2.93;;;;;9.60;95758.00;;;;5103390;28;20219;-82
2023/11/10 09:13:33;;;;;;;8.60;2.97;;;;;9.40;95758.00;;;;5101217;27;20203;-83
2023/11/10 09:16:23;;;;;;;9.50;3.07;;;;;9.30;95757.00;;;;5106427;28;20214;-82
2023/11/10 09:19:12;;;;;;;18.67;6.00;;;;;9.60;95757.00;;;;5100956;28;20207;-81
2023/11/10 09:22:01;;;;;;;11.57;3.77;;;;;9.50;95758.00;;;;5106381;27;20222;-81
2023/11/10 09:24:50;;;;;;;8.00;2.73;;;;;9.90;95756.00;;;;5104393;28;20207;-80
2023/11/10 09:27:40;;;;;;;6.60;2.20;;;;;9.80;95762.00;;;;5103501;28;20206;-83
2023/11/10 09:30:33;;;;;;;6.50;2.10;;;;;9.60;95749.00;;;;5104453;28;20218;-84
2023/11/10 09:33:22;;;;;;;7.57;2.57;;;;;9.50;95741.00;;;;5106690;28;20275;-81
2023/11/10 09:36:11;;;;;;;13.67;4.47;;;;;9.70;95757.00;;;;5105780;28;20198;-83
2023/11/10 09:39:01;;;;;;;13.00;4.13;;;;;9.80;95748.00;;;;5102695;28;20214;-81
2023/11/10 09:41:51;;;;;;;7.80;2.60;;;;;9.90;95744.00;;;;5108437;28;20221;-82
2023/11/10 09:44:41;;;;;;;6.63;2.20;;;;;10.30;95734.00;;;;5107767;28;20203;-81
2023/11/10 09:47:32;;;;;;;13.77;4.47;;;;;10.40;95727.00;;;;5097068;28;20703;-80
2023/11/10 09:50:22;;;;;;;6.10;2.10;;;;;10.30;95724.00;;;;5108724;28;20614;-82
2023/11/10 09:53:13;;;;;;;9.83;3.27;;;;;10.30;95718.00;;;;5103311;28;20218;-84
2023/11/10 09:56:02;;;;;;;11.77;3.80;;;;;10.60;95714.00;;;;5104026;28;20209;-82
2023/11/10 09:58:52;;;;;;;6.40;2.20;;;;;10.60;95707.00;;;;5102294;28;20198;-84
2023/11/10 10:01:41;;;;;;;6.67;2.20;;;;;10.70;95691.00;;;;5100020;28;20226;-82
2023/11/10 10:04:31;;;;;;;8.37;2.80;;;;;10.40;95690.00;;;;5102782;28;20683;-82
2023/11/10 10:07:22;;;;;;;13.80;4.20;;;;;10.40;95691.00;;;;5098565;28;20256;-82
2023/11/10 10:10:11;;;;;;;11.20;3.57;;;;;10.70;95683.00;;;;5107465;28;20203;-83
2023/11/10 10:13:01;;;;;;;10.07;3.27;;;;;10.90;95686.00;;;;5109718;27;20205;-85
2023/11/10 10:15:50;;;;;;;9.00;2.83;;;;;10.80;95679.00;;;;5101580;28;20195;-83
2023/11/10 10:18:39;;;;;;;13.03;4.17;;;;;11.10;95657.00;;;;5100343;28;20646;-84
2023/11/10 10:21:34;;;;;;;9.33;3.03;;;;;11.20;95657.00;;;;5104033;28;20218;-83
2023/11/10 10:24:24;;;;;;;7.77;2.60;;;;;11.10;95656.00;;;;5104984;28;20203;-82
2023/11/10 10:27:14;;;;;;;10.30;3.40;;;;;11.10;95662.00;;;;5109455;28;20579;-82
2023/11/10 10:30:04;;;;;;;14.33;4.80;;;;;11.30;95656.00;;;;5105765;28;20224;-83
2023/11/10 10:32:55;;;;;;;6.87;2.33;;;;;11.20;95642.00;;;;5108325;28;20243;-83
2023/11/10 10:35:45;;;;;;;9.83;3.17;;;;;11.40;95626.00;;;;5100929;28;20199;-85
2023/11/10 10:38:36;;;;;;;6.93;2.37;;;;;11.30;95626.00;;;;5097641;28;20205;-83
2023/11/10 10:41:26;;;;;;;8.20;2.80;;;;;11.10;95619.00;;;;5108436;28;20233;-85
2023/11/10 10:44:17;;;;;;;8.03;2.67;;;;;11.20;95619.00;;;;5104986;28;20217;-83
2023/11/10 10:47:06;;;;;;;12.33;4.00;;;;;11.40;95618.00;;;;5101930;28;20659;-85
2023/11/10 10:49:56;;;;;;;8.07;2.63;;;;;11.50;95623.00;;;;5107449;28;20229;-81
2023/11/10 10:52:47;;;;;;;6.80;2.40;;;;;11.60;95616.00;;;;5104195;28;20226;-84
2023/11/10 10:55:40;;;;;;;6.97;2.30;;;;;11.40;95617.00;;;;5110537;28;20884;-85
2023/11/10 10:58:30;;;;;;;9.33;2.97;;;;;11.50;95605.00;;;;5117579;28;20206;-83
2023/11/10 11:01:21;;;;;;;9.20;2.93;;;;;11.70;95600.00;;;;5116490;28;20218;-85
2023/11/10 11:04:30;;;;;;;14.07;4.40;;;;;11.80;95604.00;;;;5111313;28;20202;-86
2023/11/10 11:07:45;;;;;;;11.63;3.63;;;;;11.90;95600.00;;;;5107870;28;20198;-85
2023/11/10 11:10:49;;;;;;;10.33;3.23;;;;;12.10;95594.00;;;;5109255;28;20199;-85
2023/11/10 11:13:54;;;;;;;8.83;2.87;;;;;12.10;95593.00;;;;5107359;28;20205;-85
2023/11/10 11:16:59;;;;;;;4.33;1.47;;;;;12.10;95588.00;;;;5104707;28;20576;-85
2023/11/10 11:19:48;;;;;;;8.50;2.67;;;;;12.10;95578.00;;;;5104776;28;20198;-85
2023/11/10 11:22:39;;;;;;;7.23;2.30;;;;;12.20;95579.00;;;;5107908;28;20237;-84
2023/11/10 11:25:28;;;;;;;7.23;2.33;;;;;12.00;95572.00;;;;5104328;28;20205;-84
2023/11/10 11:28:26;;;;;;;7.63;2.40;;;;;11.80;95578.00;;;;5106489;27;20660;-85
2023/11/10 11:31:17;;;;;;;10.73;3.43;;;;;11.90;95579.00;;;;5109798;28;20234;-84
2023/11/10 11:34:07;;;;;;;10.33;3.37;;;;;12.10;95583.00;;;;5105731;28;20670;-85
2023/11/10 11:36:58;;;;;;;9.53;2.97;;;;;12.10;95585.00;;;;5109292;27;20211;-84
2023/11/10 11:39:47;;;;;;;8.80;2.77;;;;;12.20;95573.00;;;;5112712;27;20659;-84
2023/11/10 11:42:37;;;;;;;11.57;3.53;;;;;12.00;95568.00;;;;5114825;28;20214;-83
2023/11/10 11:45:28;;;;;;;12.07;3.77;;;;;12.10;95573.00;;;;5107230;28;20202;-84
2023/11/10 11:48:17;;;;;;;10.27;3.13;;;;;12.20;95574.00;;;;5103221;28;20199;-84
2023/11/10 11:51:06;;;;;;;10.27;3.33;;;;;12.20;95570.00;;;;5107937;28;20222;-84
2023/11/10 11:53:55;;;;;;;8.23;2.53;;;;;12.20;95565.00;;;;5109079;27;20559;-85
2023/11/10 11:56:44;;;;;;;8.80;2.77;;;;;12.20;95562.00;;;;5107955;28;20206;-84
2023/11/10 11:59:33;;;;;;;8.13;2.53;;;;;12.00;95564.00;;;;5110685;28;20213;-84
2023/11/10 12:02:24;;;;;;;12.87;3.87;;;;;12.00;95563.00;;;;5105099;28;20556;-85
2023/11/10 12:05:13;;;;;;;14.53;4.63;;;;;12.20;95560.00;;;;5103827;28;20206;-85
2023/11/10 12:08:02;;;;;;;14.27;4.47;;;;;12.20;95560.00;;;;5112363;28;20194;-84
2023/11/10 12:10:51;;;;;;;9.40;3.13;;;;;12.20;95563.00;;;;5109081;28;20229;-83
2023/11/10 12:13:40;;;;;;;5.90;1.83;;;;;12.20;95554.00;;;;5109108;28;20599;-83
2023/11/10 12:16:29;;;;;;;7.10;2.23;;;;;12.20;95554.00;;;;5115800;27;20199;-85
2023/11/10 12:19:23;;;;;;;13.43;4.07;;;;;12.20;95550.00;;;;5109111;27;20307;-85
2023/11/10 12:22:12;;;;;;;11.90;3.77;;;;;12.20;95546.00;;;;5104598;28;20227;-82
2023/11/10 12:25:02;;;;;;;10.93;3.37;;;;;12.20;95539.00;;;;5104933;28;20199;-82
2023/11/10 12:27:51;;;;;;;7.37;2.27;;;;;12.20;95533.00;;;;5105608;28;20203;-83
2023/11/10 12:30:40;;;;;;;8.40;2.63;;;;;12.00;95535.00;;;;5113931;27;20571;-84
2023/11/10 12:33:30;;;;;;;9.97;3.13;;;;;11.70;95524.00;;;;5109930;28;20222;-85
2023/11/10 12:36:20;;;;;;;8.73;2.73;;;;;11.70;95525.00;;;;5110059;28;20198;-83
2023/11/10 12:39:17;;;;;;;16.47;4.93;;;;;11.70;95537.00;;;;5115441;27;20207;-83
2023/11/10 12:42:06;;;;;;;10.83;3.33;;;;;11.80;95524.00;;;;5115178;27;20221;-86
2023/11/10 12:44:57;;;;;;;9.77;3.13;;;;;12.00;95523.00;;;;5117462;27;20198;-84
2023/11/10 12:47:49;;;;;;;8.87;2.73;;;;;12.10;95510.00;;;;5101365;28;20655;-83
2023/11/10 12:50:43;;;;;;;15.03;4.63;;;;;12.10;95511.00;;;;5109012;27;20616;-84
2023/11/10 12:53:34;;;;;;;4.57;1.53;;;;;12.20;95493.00;;;;5110040;28;20698;-84
2023/11/10 12:56:23;;;;;;;8.20;2.60;;;;;12.20;95490.00;;;;5109226;28;20202;-84
2023/11/10 12:59:12;;;;;;;14.27;4.30;;;;;12.20;95492.00;;;;5109915;28;20205;-85
2023/11/10 13:02:04;;;;;;;9.03;2.73;;;;;12.30;95488.00;;;;5104800;27;20219;-85
2023/11/10 13:04:53;;;;;;;8.47;2.63;;;;;12.10;95501.00;;;;5107137;28;20226;-84
2023/11/10 13:07:43;;;;;;;8.57;2.70;;;;;12.10;95493.00;;;;5103327;28;20206;-84
2023/11/10 13:10:34;;;;;;;11.77;3.63;;;;;12.20;95492.00;;;;5110758;28;20201;-84
2023/11/10 13:13:22;;;;;;;8.67;2.77;;;;;12.20;95490.00;;;;5108832;28;20214;-83
2023/11/10 13:16:11;;;;;;;10.00;3.13;;;;;12.20;95492.00;;;;5105577;28;20220;-83
2023/11/10 13:19:01;;;;;;;8.90;2.73;;;;;12.20;95489.00;;;;5104425;27;20320;-85
2023/11/10 13:21:50;;;;;;;6.47;2.07;;;;;12.30;95487.00;;;;5105905;28;20222;-84
2023/11/10 13:24:39;;;;;;;9.00;2.80;;;;;12.30;95485.00;;;;5105051;27;20586;-86
2023/11/10 13:27:31;;;;;;;14.53;4.57;;;;;12.40;95484.00;;;;5106970;28;20203;-83
2023/11/10 13:30:20;;;;;;;5.87;1.93;;;;;12.40;95480.00;;;;5106004;28;20233;-84
2023/11/10 13:33:09;;;;;;;12.90;3.97;;;;;12.40;95471.00;;;;5108332;28;20241;-87
2023/11/10 13:35:58;;;;;;;7.67;2.40;;;;;12.30;95471.00;;;;5106647;28;20966;-88
2023/11/10 13:38:47;;;;;;;30.83;9.20;;;;;12.40;95467.00;;;;5105879;27;20201;-86
2023/11/10 13:41:36;;;;;;;8.03;2.50;;;;;12.30;95462.00;;;;5111526;27;20211;-89
2023/11/10 13:44:29;;;;;;;6.80;2.20;;;;;12.30;95463.00;;;;5110571;28;20244;-88
2023/11/10 13:47:18;;;;;;;10.00;3.10;;;;;12.20;95459.00;;;;5102390;28;20202;-89
2023/11/10 13:50:09;;;;;;;12.93;3.90;;;;;12.30;95463.00;;;;5106789;28;20206;-87
2023/11/10 13:52:59;;;;;;;6.87;2.20;;;;;12.30;95459.00;;;;5102720;28;20223;-86
2023/11/10 13:55:48;;;;;;;10.53;3.30;;;;;12.20;95470.00;;;;5104156;27;20213;-86
2023/11/10 13:58:37;;;;;;;10.37;3.33;;;;;12.20;95454.00;;;;5113383;27;20203;-87
2023/11/10 14:01:29;;;;;;;8.93;2.87;;;;;12.10;95460.00;;;;5105634;27;20229;-87
2023/11/10 14:04:18;;;;;;;9.57;2.93;;;;;11.90;95454.00;;;;5102102;28;20195;-86
2023/11/10 14:07:07;;;;;;;12.67;3.83;;;;;12.00;95463.00;;;;5101522;28;20198;-88
2023/11/10 14:09:56;;;;;;;5.07;1.77;;;;;11.80;95463.00;;;;5103722;28;20604;-87
2023/11/10 14:12:48;;;;;;;5.77;1.90;;;;;11.80;95465.00;;;;5100912;27;20600;-86
2023/11/10 14:15:37;;;;;;;9.33;2.93;;;;;11.90;95460.00;;;;5111346;28;20298;-87